Tiempo atmosférico en la estación meteorológica de Valle de Hecho, Hecho, Huesca (855 m.)



Fecha
DESCASC
Temp. máxima en grados centígrados (hora)
DESCASC
Temp. mínima en grados centígrados (hora)
DESCASC
Temp. media en grados centígrados
DESCASC
Racha de viento máxima en m/sg (hora)
DESCASC
Velocidad máxima media en intervalos de 10 minutos(hora)
DESCASC
Precipitaciones diarias en mm
DESCASC
Precipitaciones de 00:00 a 06:00 en mm
DESCASC
Precipitaciones de 06:00 a 12:00 en mm
DESCASC
Precipitaciones de 12:00 a 18:00 en mm
DESCASC
Precipitaciones de 18:00 a 24:00 en mm
DESCASC
16-04-2019 18.1 (15:40) 5.2 (08:10) 11.7 8.06 (17:30) 3.61 (13:00) 1.4 1.4 0 0 0
15-04-2019 21.3 (16:10) 4 (07:10) 12.6 18.89 (20:10) 6.94 (20:20) 9.4 0 0 0 9.4
14-04-2019 17.4 (16:20) 3.1 (00:00) 10.2 11.11 (08:50) 5 (14:30) 0 0 0 0 0
13-04-2019 18.2 (16:30) -3.2 (-00:0) 7.5 8.89 (15:10) 5.28 (15:10) 0 0 0 0 0
12-04-2019 12.8 (15:40) 6.6 (00:00) 9.7 14.44 (08:40) 7.5 (10:40) 0 0 0 0 0
11-04-2019 9.2 (11:50) 5.7 (00:00) 7.4 14.72 (02:30) 7.78 (11:30) 0 0 0 0 0
10-04-2019 12 (15:40) 0.6 (00:00) 6.3 16.94 (16:40) 8.61 (14:20) 0 0 0 0 0
09-04-2019 13.1 (13:40) 0.4 (00:00) 6.8 8.61 (15:30) 4.72 (21:30) 0.8 0 0 0.8 0
08-04-2019 12.2 (18:10) 0.8 (00:00) 6.5 5.83 (17:10) 2.78 (17:20) 2.6 0 0.6 2 0
07-04-2019 11.2 (17:10) 1 (00:00) 6.1 10 (13:50) 6.39 (13:20) 4 4 0 0 0
06-04-2019 7.2 (15:20) 1.2 (00:00) 4.2 8.89 (15:50) 3.61 (15:50) 11.2 3.8 2.4 1.8 3.2
05-04-2019 7 (03:50) 2.6 (00:00) 4.8 10.28 (06:10) 5.28 (09:00) 5.6 0 0.6 1.4 3.6
04-04-2019 9.2 (17:40) -0.7 (-00:0) 4.2 8.33 (13:50) 4.72 (07:10) 0.2 0.2 0 0 0
03-04-2019 7.6 (16:50) 1.2 (00:00) 4.4 10 (17:10) 6.39 (17:10) 5.6 3 1.2 1.4 0
02-04-2019 15.5 (16:10) 5.4 (00:00) 10.5 8.33 (16:20) 4.44 (15:50) 0.8 0.6 0 0.2 0
01-04-2019 11.4 (14:50) 5.5 (00:00) 8.4 5 (14:50) 2.5 (15:00) 2.2 0 2 0.2 0
31-03-2019 16.1 (17:00) -1.1 (-00:0) 7.5 8.06 (15:10) 3.89 (15:10) 0 0 0 0 0
30-03-2019 17.1 (15:10) -0.6 (-00:0) 8.3 8.06 (15:20) 3.61 (13:00) 0 0 0 0 0
29-03-2019 16.3 (16:00) -0.1 (00:00) 8.1 10.56 (13:20) 5.28 (13:40) 0 0 0 0 0
28-03-2019 17.5 (14:20) -2.4 (-00:0) 7.5 10 (16:30) 5.28 (16:00) 0 0 0 0 0
27-03-2019 14.5 (13:10) -2.2 (-00:0) 6.1 16.94 (21:20) 8.33 (10:50) 0 0 0 0 0
26-03-2019 14.9 (14:00) 6.3 (00:00) 10.6 15.28 (02:30) 7.22 (10:10) 0 0 0 0 0
25-03-2019 13.7 (14:20) 3.7 (00:00) 8.7 20.83 (19:40) 9.17 (19:40) 0 0 0 0 0
24-03-2019 18.1 (13:20) 0.8 (00:00) 9.5 14.17 (20:00) 6.94 (20:10) 0 0 0 0 0
23-03-2019 21.2 (15:20) -0.5 (-00:0) 10.4 7.22 (15:50) 4.72 (15:50) 0 0 0 0 0
22-03-2019 17.9 (15:20) -2.7 (-00:0) 7.6 7.22 (16:20) 3.33 (14:10) 0 0 0 0 0
21-03-2019 14.7 (15:30) -3.8 (-00:0) 5.4 8.61 (00:30) 4.17 (00:20) 0 0 0 0 0
20-03-2019 10.2 (14:10) 3.6 (00:00) 6.9 15.83 (20:20) 8.89 (10:20) 0 0 0 0 0
19-03-2019 8 (14:10) 2.5 (00:00) 5.3 16.67 (10:30) 10 (10:40) 0 0 0 0 0

Gráficas

Temp. máximas Temp. mínimas Temp. medias Precipitaciones Rachas de viento máximas Velocidades máximas media en intervalos de 10 minutos

Datos horarios

Fecha y hora oficial Temperatura (ºC) Velocidad del viento (km/h) Dirección del viento Racha (km/h) Dirección de racha Precipitación (mm) Presión (hPa) Tendencia (hPa) Humedad (%)
2019-04-17 23:00:00 12.4 2 Oeste 13 Norte 0 -- -- 64
2019-04-17 22:00:00 13.5 5 Nordeste 15 Norte 0 -- -- 59
2019-04-17 21:00:00 16.1 3 Este 18 Sur 0 -- -- 49
2019-04-17 20:00:00 18.3 9 Sur 23 Sudoeste 0 -- -- 41
2019-04-17 19:00:00 19.7 15 Sudoeste 32 Sur 0 -- -- 39
2019-04-17 18:00:00 20.5 14 Sur 33 Sur 0 -- -- 36
2019-04-17 17:00:00 20.7 15 Sur 39 Sudoeste 0 -- -- 37
2019-04-17 16:00:00 20.7 19 Sudoeste 37 Sudoeste 0 -- -- 37
2019-04-17 15:00:00 19.4 17 Sur 46 Sudeste 0 -- -- 41
2019-04-17 14:00:00 18.3 18 Sudoeste 41 Sudoeste 0 -- -- 43
2019-04-17 13:00:00 17.7 18 Sudoeste 35 Sudoeste 0 -- -- 46
2019-04-17 12:00:00 15.8 15 Sudoeste 27 Sudoeste 0 -- -- 51
2019-04-17 11:00:00 14.5 14 Sudoeste 26 Sudoeste 0 -- -- 55
2019-04-17 10:00:00 11.9 5 Sudeste 14 Sudoeste 0 -- -- 70
2019-04-17 09:00:00 6.9 2 Nordeste 8 Nordeste 0 -- -- 92
2019-04-17 08:00:00 5.2 2 Este 9 Sur 0 -- -- 91
2019-04-17 07:00:00 5.7 5 Norte 11 Norte 0 -- -- 92
2019-04-17 06:00:00 5.5 3 Nordeste 6 Noroeste 0 -- -- 92
2019-04-17 05:00:00 5 2 Nordeste 6 Norte 0 -- -- 92
2019-04-17 04:00:00 5.5 3 Sudoeste 5 Sudoeste 0 -- -- 90
2019-04-17 03:00:00 5.9 3 Noroeste 5 Noroeste 0 -- -- 89
2019-04-17 02:00:00 7 0 Calma 6 Nordeste 0 -- -- 86
2019-04-17 01:00:00 8 4 Nordeste 5 Nordeste 0 -- -- 82
2019-04-17 00:00:00 9 3 Nordeste 8 Oeste 0 -- -- 79
2019-04-16 23:00:00 10.3 3 Sudeste 7 Noroeste 0 -- -- 74
2019-04-16 22:00:00 12.6 3 Oeste 7 Sudoeste 0 -- -- 62
2019-04-16 21:00:00 14.1 5 Sur 20 Sur 0 -- -- 57
2019-04-16 20:00:00 15.1 10 Sudoeste 21 Sudoeste 0 -- -- 54
2019-04-16 19:00:00 16.2 10 Sudoeste 26 Sudoeste 0 -- -- 50
2019-04-16 18:00:00 17 8 Sur 29 Sudoeste 0 -- -- 46
2019-04-16 17:00:00 17.7 9 Sur 26 Sudoeste 0 -- -- 42
2019-04-16 16:00:00 18.1 8 Sudoeste 24 Sudoeste 0 -- -- 41
2019-04-16 15:00:00 17.3 9 Sur 23 Sudoeste 0 -- -- 45
2019-04-16 14:00:00 16.2 10 Sur 24 Sudoeste 0 -- -- 52
2019-04-16 13:00:00 15.7 13 Sudoeste 24 Sudoeste 0 -- -- 52
2019-04-16 12:00:00 14.6 8 Nordeste 19 Nordeste 0 -- -- 49
2019-04-16 11:00:00 12.7 4 Sudeste 12 Sudeste 0 -- -- 65
2019-04-16 10:00:00 10.1 4 Sudeste 8 Sudeste 0 -- -- 81
2019-04-16 09:00:00 6.4 4 Sudeste 7 Este 0 -- -- 95
2019-04-16 08:00:00 5.4 0 Calma 7 Sur 0 -- -- 95
2019-04-16 07:00:00 5.9 4 Sudoeste 9 Sudoeste 0 -- -- 94
2019-04-16 06:00:00 5.9 2 Sudoeste 12 Sur 0 -- -- 94
2019-04-16 05:00:00 5.9 3 Sur 18 Sur 0 -- -- 92
2019-04-16 04:00:00 6.8 6 Noroeste 13 Noroeste 0 -- -- 88
2019-04-16 03:00:00 7.2 4 Sur 21 Norte 0 -- -- 87
2019-04-16 02:00:00 8.1 12 Noroeste 22 Noroeste 0 -- -- 79
2019-04-16 01:00:00 8.4 13 Noroeste 25 Norte 1.4 -- -- 82
2019-04-16 00:00:00 9.7 11 Noroeste 22 Noroeste 0.4 -- -- 89
2019-04-15 23:00:00 10 3 Este 21 Noroeste 6.4 -- -- 87
2019-04-15 22:00:00 11.9 14 Noroeste 27 Noroeste 0 -- -- 75
2019-04-15 21:00:00 12.6 14 Noroeste 68 Sudoeste 2.6 -- -- 80
2019-04-15 20:00:00 17.5 13 Sur 31 Sur 0 -- -- 53
2019-04-15 19:00:00 18.2 15 Sudoeste 27 Sur 0 -- -- 51
2019-04-15 18:00:00 19.4 13 Sur 35 Sudoeste 0 -- -- 47
2019-04-15 17:00:00 20.1 15 Sur 39 Sur 0 -- -- 45
2019-04-15 16:00:00 21 17 Sur 44 Sudoeste 0 -- -- 45
2019-04-15 15:00:00 19.5 20 Sudoeste 39 Sudoeste 0 -- -- 48
2019-04-15 14:00:00 19.5 14 Sudeste 31 Sudeste 0 -- -- 46
2019-04-15 13:00:00 18.1 12 Sudoeste 27 Sudoeste 0 -- -- 49
2019-04-15 12:00:00 18.3 12 Sudoeste 23 Sudoeste 0 -- -- 48
2019-04-15 11:00:00 14.7 3 Sudoeste 8 Sudoeste 0 -- -- 62
2019-04-15 10:00:00 9.6 0 Calma 6 Nordeste 0 -- -- 81
2019-04-15 09:00:00 6.2 2 Norte 6 Este 0 -- -- 96
2019-04-15 08:00:00 4.3 0 Calma 8 Sudoeste 0 -- -- 94
2019-04-15 07:00:00 4.4 2 Noroeste 6 Nordeste 0 -- -- 91
2019-04-15 06:00:00 4.8 0 Calma 6 Nordeste 0 -- -- 92
2019-04-15 05:00:00 5.2 3 Sudoeste 5 Sudoeste 0 -- -- 91
2019-04-15 04:00:00 5.8 3 Sudoeste 6 Sudoeste 0 -- -- 90
2019-04-15 03:00:00 6.3 2 Sudoeste 7 Nordeste 0 -- -- 89
2019-04-15 02:00:00 7.2 2 Sudoeste 6 Norte 0 -- -- 87
2019-04-15 01:00:00 7.8 3 Sudoeste 9 Sudoeste 0 -- -- 83
2019-04-15 00:00:00 8.9 4 Sudoeste 12 Sudoeste 0 -- -- 81
2019-04-14 23:00:00 10.4 4 Sur 13 Oeste 0 -- -- 76
2019-04-14 22:00:00 12.4 0 Calma 23 Nordeste 0 -- -- 68
2019-04-14 21:00:00 14.2 10 Noroeste 22 Noroeste 0 -- -- 60
2019-04-14 20:00:00 14.8 7 Norte 25 Nordeste 0 -- -- 57
2019-04-14 19:00:00 15.8 10 Norte 26 Noroeste 0 -- -- 56
2019-04-14 18:00:00 16.4 9 Norte 22 Norte 0 -- -- 58
2019-04-14 17:00:00 16.7 12 Norte 29 Nordeste 0 -- -- 58
2019-04-14 16:00:00 17.2 8 Norte 31 Nordeste 0 -- -- 53
2019-04-14 15:00:00 16.7 14 Nordeste 32 Nordeste 0 -- -- 55
2019-04-14 14:00:00 16.2 10 Norte 26 Nordeste 0 -- -- 55
2019-04-14 13:00:00 15.7 13 Norte 33 Nordeste 0 -- -- 57
2019-04-14 12:00:00 15.9 15 Nordeste 32 Nordeste 0 -- -- 55
2019-04-14 11:00:00 13.9 13 Nordeste 27 Norte 0 -- -- 53
2019-04-14 10:00:00 13.4 9 Norte 31 Norte 0 -- -- 48
2019-04-14 09:00:00 12.4 17 Noroeste 40 Nordeste 0 -- -- 41
2019-04-14 08:00:00 12.6 13 Norte 28 Noroeste 0 -- -- 45
2019-04-14 07:00:00 12.8 11 Noroeste 22 Noroeste 0 -- -- 41
2019-04-14 06:00:00 7.4 2 Este 8 Noroeste 0 -- -- 55
2019-04-14 05:00:00 5 3 Sudeste 7 Oeste 0 -- -- 62
2019-04-14 04:00:00 4.1 0 Calma 10 Nordeste 0 -- -- 64
2019-04-14 03:00:00 3.3 3 Oeste 9 Sudoeste 0 -- -- 65
2019-04-14 02:00:00 3.5 2 Sudoeste 6 Oeste 0 -- -- 60
2019-04-14 01:00:00 4.2 0 Calma 6 Oeste 0 -- -- 51
2019-04-14 00:00:00 5.5 2 Sudoeste 9 Sudoeste 0 -- -- 47
2019-04-13 23:00:00 7.5 2 Sur 5 Sudoeste 0 -- -- 39
2019-04-13 22:00:00 10.3 2 Sur 17 Norte 0 -- -- 27
2019-04-13 21:00:00 12.3 9 Norte 19 Norte 0 -- -- 19
2019-04-13 20:00:00 13.8 11 Noroeste 18 Noroeste 0 -- -- 20
2019-04-13 19:00:00 16.8 9 Noroeste 22 Nordeste 0 -- -- 16
2019-04-13 18:00:00 17.4 10 Norte 28 Nordeste 0 -- -- 15
2019-04-13 17:00:00 17.9 14 Nordeste 30 Nordeste 0 -- -- 13
2019-04-13 16:00:00 17.8 17 Nordeste 32 Nordeste 0 -- -- 11
2019-04-13 15:00:00 18 16 Nordeste 28 Nordeste 0 -- -- 10
2019-04-13 14:00:00 17.6 16 Nordeste 31 Nordeste 0 -- -- 13
2019-04-13 13:00:00 16.8 13 Norte 26 Nordeste 0 -- -- 14
2019-04-13 12:00:00 16 16 Nordeste 26 Nordeste 0 -- -- 14
2019-04-13 11:00:00 11 4 Sur 8 Sudoeste 0 -- -- 31
2019-04-13 10:00:00 5.1 3 Sur 8 Nordeste 0 -- -- 49
2019-04-13 09:00:00 -0.6 3 Este 8 Nordeste 0 -- -- 76
2019-04-13 08:00:00 -3 4 Sudoeste 8 Oeste 0 -- -- 77
2019-04-13 07:00:00 -2.7 4 Noroeste 8 Oeste 0 -- -- 76
2019-04-13 06:00:00 -2.1 2 Sudeste 5 Sur 0 -- -- 74
2019-04-13 05:00:00 -1.3 3 Oeste 8 Oeste 0 -- -- 71
2019-04-13 04:00:00 -0.4 0 Calma 10 Sudoeste 0 -- -- 66
2019-04-13 03:00:00 1 4 Sudoeste 14 Sur 0 -- -- 61
2019-04-13 02:00:00 3.1 8 Sudoeste 13 Sudoeste 0 -- -- 51
2019-04-13 01:00:00 7.1 4 Sur 29 Norte 0 -- -- 38
2019-04-13 00:00:00 8.3 16 Noroeste 47 Noroeste 0 -- -- 37
2019-04-12 23:00:00 8 17 Norte 43 Oeste 0 -- -- 50
2019-04-12 22:00:00 8.2 14 Norte 49 Norte 0 -- -- 51
2019-04-12 21:00:00 9 17 Norte 46 Nordeste 0 -- -- 49
2019-04-12 20:00:00 9.8 17 Norte 41 Norte 0 -- -- 47
2019-04-12 19:00:00 11 18 Norte 40 Norte 0 -- -- 44
2019-04-12 18:00:00 12.1 13 Norte 43 Nordeste 0 -- -- 40
2019-04-12 17:00:00 12.4 17 Norte 44 Nordeste 0 -- -- 42
2019-04-12 16:00:00 12.8 19 Nordeste 43 Nordeste 0 -- -- 40
2019-04-12 15:00:00 12.2 27 Nordeste 44 Nordeste 0 -- -- 41
2019-04-12 14:00:00 11.8 25 Nordeste 48 Nordeste 0 -- -- 40
2019-04-12 13:00:00 10.6 23 Nordeste 51 Nordeste 0 -- -- 43
2019-04-12 12:00:00 9.9 24 Nordeste 50 Norte 0 -- -- 45
2019-04-12 11:00:00 9.1 21 Nordeste 46 Nordeste 0 -- -- 47
2019-04-12 10:00:00 8.5 19 Norte 49 Nordeste 0 -- -- 48
2019-04-12 09:00:00 7.6 18 Norte 52 Nordeste 0 -- -- 53
2019-04-12 08:00:00 6.6 18 Noroeste 43 Nordeste 0 -- -- 57
2019-04-12 07:00:00 6.8 19 Noroeste 40 Noroeste 0 -- -- 58
2019-04-12 06:00:00 7 17 Norte 39 Nordeste 0 -- -- 58
2019-04-12 05:00:00 7.1 13 Norte 36 Norte 0 -- -- 60
2019-04-12 04:00:00 7.1 18 Norte 42 Nordeste 0 -- -- 63
2019-04-12 03:00:00 6.9 17 Noroeste 33 Noroeste 0 -- -- 67
2019-04-12 02:00:00 7.2 14 Norte 35 Noroeste 0 -- -- 67
2019-04-12 01:00:00 6.8 14 Norte 40 Noroeste 0 -- -- 67
2019-04-12 00:00:00 6.8 14 Noroeste 36 Nordeste 0 -- -- 65
2019-04-11 23:00:00 6.8 16 Norte 41 Noroeste 0 -- -- 69
2019-04-11 22:00:00 7 17 Norte 39 Nordeste 0 -- -- 65
2019-04-11 21:00:00 6.9 12 Norte 34 Norte 0 -- -- 66
2019-04-11 20:00:00 7.4 10 Noroeste 27 Nordeste 0 -- -- 64
2019-04-11 19:00:00 8.1 12 Norte 38 Nordeste 0 -- -- 61
2019-04-11 18:00:00 7.9 16 Norte 41 Norte 0 -- -- 63
2019-04-11 17:00:00 8.1 16 Nordeste 36 Nordeste 0 -- -- 65
2019-04-11 16:00:00 8.3 18 Nordeste 41 Nordeste 0 -- -- 63
2019-04-11 15:00:00 8.7 19 Norte 41 Nordeste 0 -- -- 59
2019-04-11 14:00:00 8.5 24 Nordeste 43 Nordeste 0 -- -- 58
2019-04-11 13:00:00 8 23 Nordeste 47 Nordeste 0 -- -- 62
2019-04-11 12:00:00 9.1 24 Nordeste 46 Nordeste 0 -- -- 53
2019-04-11 11:00:00 8.2 26 Nordeste 47 Nordeste 0 -- -- 53
2019-04-11 10:00:00 8 24 Nordeste 44 Nordeste 0 -- -- 49
2019-04-11 09:00:00 6.7 22 Nordeste 40 Nordeste 0 -- -- 52
2019-04-11 08:00:00 5.7 15 Nordeste 42 Norte 0 -- -- 55
2019-04-11 07:00:00 5.8 15 Norte 38 Nordeste 0 -- -- 56
2019-04-11 06:00:00 5.7 14 Norte 33 Noroeste 0 -- -- 56
2019-04-11 05:00:00 6.1 11 Noroeste 36 Noroeste 0 -- -- 60
2019-04-11 04:00:00 6.1 15 Norte 38 Noroeste 0 -- -- 60
2019-04-11 03:00:00 6.5 18 Norte 53 Nordeste 0 -- -- 53
2019-04-11 02:00:00 6.9 17 Norte 44 Nordeste 0 -- -- 55
2019-04-11 01:00:00 7 14 Norte 42 Noroeste 0 -- -- 58
2019-04-11 00:00:00 7.2 17 Norte 48 Norte 0 -- -- 56
2019-04-10 23:00:00 7.2 21 Nordeste 41 Nordeste 0 -- -- 58
2019-04-10 22:00:00 7.2 14 Norte 38 Nordeste 0 -- -- 62
2019-04-10 21:00:00 7.6 18 Nordeste 38 Nordeste 0 -- -- 62
2019-04-10 20:00:00 8.1 19 Nordeste 44 Nordeste 0 -- -- 59
2019-04-10 19:00:00 8.7 19 Norte 44 Nordeste 0 -- -- 57
2019-04-10 18:00:00 9.4 20 Norte 50 Nordeste 0 -- -- 55
2019-04-10 17:00:00 10.7 23 Nordeste 61 Nordeste 0 -- -- 45
2019-04-10 16:00:00 12 14 Norte 44 Nordeste 0 -- -- 45
2019-04-10 15:00:00 11.1 19 Norte 55 Nordeste 0 -- -- 48
2019-04-10 14:00:00 11.3 21 Nordeste 40 Nordeste 0 -- -- 48
2019-04-10 13:00:00 10.9 22 Nordeste 50 Nordeste 0 -- -- 49
2019-04-10 12:00:00 10.4 26 Nordeste 48 Nordeste 0 -- -- 48
2019-04-10 11:00:00 9.9 23 Nordeste 45 Norte 0 -- -- 51
2019-04-10 10:00:00 8.9 21 Nordeste 44 Nordeste 0 -- -- 60
2019-04-10 09:00:00 6.1 12 Nordeste 27 Nordeste 0 -- -- 76
2019-04-10 08:00:00 1.1 8 Sudoeste 14 Sudoeste 0 -- -- 90
2019-04-10 07:00:00 1 4 Noroeste 12 Sudoeste 0 -- -- 94
2019-04-10 06:00:00 1.5 5 Sudoeste 13 Sudoeste 0 -- -- 93
2019-04-10 05:00:00 2.5 5 Sur 12 Sur 0 -- -- 92
2019-04-10 04:00:00 3.3 2 Sur 15 Sudoeste 0 -- -- 91
2019-04-10 03:00:00 3.9 5 Sudoeste 11 Sudoeste 0 -- -- 88
2019-04-10 02:00:00 4.2 2 Sur 11 Sur 0 -- -- 86
2019-04-10 01:00:00 4.7 5 Sudoeste 19 Nordeste 0 -- -- 81
2019-04-10 00:00:00 5.3 6 Este 13 Este 0 -- -- 77
2019-04-09 23:00:00 6.5 5 Norte 21 Noroeste 0 -- -- 75
2019-04-09 22:00:00 7 10 Noroeste 27 Noroeste 0 -- -- 72
2019-04-09 21:00:00 8.2 8 Noroeste 23 Noroeste 0 -- -- 63
2019-04-09 20:00:00 9.1 10 Noroeste 26 Norte 0 -- -- 57
2019-04-09 19:00:00 10.7 13 Noroeste 27 Oeste 0 -- -- 55
2019-04-09 18:00:00 11.3 6 Sudoeste 18 Sudoeste 0 -- -- 55
2019-04-09 17:00:00 12 4 Sur 25 Nordeste 0 -- -- 55
2019-04-09 16:00:00 10.8 11 Este 31 Noroeste 0.8 -- -- 57
2019-04-09 15:00:00 11.3 10 Oeste 21 Oeste 0 -- -- 50
2019-04-09 14:00:00 12.3 8 Oeste 29 Sudoeste 0 -- -- 48
2019-04-09 13:00:00 12.1 10 Oeste 28 Sudoeste 0 -- -- 51
2019-04-09 12:00:00 10.6 5 Sudoeste 30 Noroeste 0 -- -- 55
2019-04-09 11:00:00 8.7 9 Oeste 29 Noroeste 0 -- -- 62
2019-04-09 10:00:00 3.4 0 Calma 6 Sur 0 -- -- 97
2019-04-09 09:00:00 1.8 3 Sudeste 8 Este 0 -- -- 97
2019-04-09 08:00:00 0.4 0 Calma 8 Noroeste 0 -- -- 96
2019-04-09 07:00:00 0.6 0 Calma 3 Nordeste 0 -- -- 95
2019-04-09 06:00:00 1.3 0 Calma 5 Sudoeste 0 -- -- 95
2019-04-09 05:00:00 2 0 Calma 4 Sudoeste 0 -- -- 94
2019-04-09 04:00:00 2.5 2 Nordeste 4 Oeste 0 -- -- 93
2019-04-09 03:00:00 3.3 0 Calma 3 Sudoeste 0 -- -- 92
2019-04-09 02:00:00 3.9 0 Calma 5 Noroeste 0 -- -- 91
2019-04-09 01:00:00 4.5 0 Calma 8 Nordeste 0 -- -- 90
2019-04-09 00:00:00 4.8 4 Noroeste 9 Norte 0 -- -- 88
2019-04-08 23:00:00 5.1 3 Sudoeste 10 Noroeste 0 -- -- 86
2019-04-08 22:00:00 6.6 3 Sudeste 12 Norte 0 -- -- 80
2019-04-08 21:00:00 8 7 Norte 18 Noroeste 0 -- -- 74
2019-04-08 20:00:00 9.8 8 Norte 17 Norte 0 -- -- 68
2019-04-08 19:00:00 11.1 6 Oeste 14 Oeste 0 -- -- 71
2019-04-08 18:00:00 11.8 6 Norte 21 Noroeste 0 -- -- 65
2019-04-08 17:00:00 11.3 4 Norte 10 Sudoeste 0 -- -- 68
2019-04-08 16:00:00 10.3 4 Sur 8 Sudoeste 0.4 -- -- 82
2019-04-08 15:00:00 9.3 2 Oeste 10 Norte 1 -- -- 80
2019-04-08 14:00:00 9.3 2 Sudeste 8 Este 0.2 -- -- 77
2019-04-08 13:00:00 7.4 3 Sudeste 6 Nordeste 0.4 -- -- 84
2019-04-08 12:00:00 6.9 2 Sudoeste 7 Nordeste 0.2 -- -- 82
2019-04-08 11:00:00 5.7 5 Nordeste 8 Nordeste 0.2 -- -- 92
2019-04-08 10:00:00 4.5 0 Calma 4 Sudoeste 0 -- -- 94
2019-04-08 09:00:00 3.7 0 Calma 6 Sudoeste 0 -- -- 95
2019-04-08 08:00:00 3.2 4 Oeste 10 Noroeste 0 -- -- 95
2019-04-08 07:00:00 2.6 3 Noroeste 6 Sudoeste 0.2 -- -- 95
2019-04-08 06:00:00 2.2 0 Calma 7 Norte 0 -- -- 94
2019-04-08 05:00:00 1.9 5 Norte 10 Noroeste 0 -- -- 94
2019-04-08 04:00:00 1.1 0 Calma 6 Nordeste 0 -- -- 94
2019-04-08 03:00:00 0.8 3 Oeste 6 Sudoeste 0 -- -- 93
2019-04-08 02:00:00 1.1 4 Norte 6 Noroeste 0 -- -- 92
2019-04-08 01:00:00 1.3 0 Calma 5 Noroeste 0 -- -- 90
2019-04-08 00:00:00 1.8 0 Calma 4 Noroeste 0 -- -- 88
2019-04-07 23:00:00 2.9 2 Sudoeste 6 Este 0 -- -- 85
2019-04-07 22:00:00 4.5 4 Sur 13 Norte 0 -- -- 78
2019-04-07 21:00:00 6 6 Nordeste 16 Noroeste 0 -- -- 71
2019-04-07 20:00:00 7.7 11 Oeste 28 Noroeste 0 -- -- 62
2019-04-07 19:00:00 8.7 17 Oeste 36 Sudoeste 0 -- -- 61
2019-04-07 18:00:00 9.7 12 Oeste 33 Oeste 0 -- -- 58
2019-04-07 17:00:00 11 10 Norte 30 Noroeste 0 -- -- 56
2019-04-07 16:00:00 9.5 22 Oeste 32 Oeste 0 -- -- 64
2019-04-07 15:00:00 7.7 17 Noroeste 31 Noroeste 0 -- -- 72
2019-04-07 14:00:00 8.5 11 Noroeste 36 Noroeste 0 -- -- 65
2019-04-07 13:00:00 8.2 17 Oeste 31 Oeste 0 -- -- 65
2019-04-07 12:00:00 7.4 12 Noroeste 30 Noroeste 0 -- -- 69
2019-04-07 11:00:00 5.5 21 Noroeste 33 Oeste 0 -- -- 77
2019-04-07 10:00:00 5.1 4 Nordeste 14 Noroeste 0 -- -- 88
2019-04-07 09:00:00 2.1 3 Nordeste 9 Norte 0 -- -- 97
2019-04-07 08:00:00 1.1 2 Nordeste 6 Noroeste 0 -- -- 95
2019-04-07 07:00:00 1 0 Calma 6 Oeste 0 -- -- 95
2019-04-07 06:00:00 1.1 4 Norte 8 Nordeste 0.6 -- -- 95
2019-04-07 05:00:00 1.4 4 Norte 6 Norte 0 -- -- 95
2019-04-07 04:00:00 1.4 2 Noroeste 9 Norte 0 -- -- 95
2019-04-07 03:00:00 1.7 4 Nordeste 13 Oeste 2.6 -- -- 93
2019-04-07 02:00:00 2.5 2 Sur 8 Noroeste 0.8 -- -- 95
2019-04-07 01:00:00 2.4 0 Calma 4 Oeste 0 -- -- 95
2019-04-07 00:00:00 2.4 0 Calma 10 Norte 0 -- -- 94
2019-04-06 23:00:00 2.4 4 Nordeste 14 Noroeste 2.4 -- -- 93
2019-04-06 22:00:00 3.6 4 Sudeste 10 Sudoeste 0 -- -- 93
2019-04-06 21:00:00 3.8 0 Calma 5 Noroeste 0 -- -- 91
2019-04-06 20:00:00 4.2 2 Noroeste 21 Sudeste 0.6 -- -- 88
2019-04-06 19:00:00 5.5 5 Sudoeste 9 Sudoeste 0.2 -- -- 87
2019-04-06 18:00:00 5.3 2 Nordeste 10 Noroeste 0.2 -- -- 87
2019-04-06 17:00:00 4 4 Nordeste 17 Sudoeste 0.2 -- -- 90
2019-04-06 16:00:00 4 12 Sur 32 Sur 1.4 -- -- 83
2019-04-06 15:00:00 6.8 5 Sudeste 18 Sudeste 0 -- -- 68
2019-04-06 14:00:00 6.4 6 Sur 14 Sur 0 -- -- 68
2019-04-06 13:00:00 5.1 3 Este 13 Noroeste 0 -- -- 76
2019-04-06 12:00:00 4.6 4 Nordeste 12 Sudeste 0 -- -- 79
2019-04-06 11:00:00 2.9 3 Sudoeste 6 Sudoeste 0 -- -- 94
2019-04-06 10:00:00 1.4 3 Sudeste 9 Sur 1 -- -- 94
2019-04-06 09:00:00 1.7 4 Sur 9 Oeste 0.6 -- -- 93
2019-04-06 08:00:00 1.8 6 Oeste 12 Oeste 0.4 -- -- 92
2019-04-06 07:00:00 1.6 4 Oeste 10 Sudoeste 0.4 -- -- 94
2019-04-06 06:00:00 1.4 3 Sur 8 Sur 0.2 -- -- 95
2019-04-06 05:00:00 1.2 2 Nordeste 9 Sudoeste 0.4 -- -- 94
2019-04-06 04:00:00 1.5 2 Sudeste 9 Sur 0.4 -- -- 94
2019-04-06 03:00:00 1.7 4 Sur 14 Sur 1 -- -- 93
2019-04-06 02:00:00 2.2 5 Sudoeste 21 Noroeste 1 -- -- 92
2019-04-06 01:00:00 2.8 8 Noroeste 22 Noroeste 0.8 -- -- 90
2019-04-06 00:00:00 3.2 3 Sur 7 Sur 0.2 -- -- 95
2019-04-05 23:00:00 3.1 3 Oeste 9 Sudoeste 0 -- -- 94
2019-04-05 22:00:00 3.1 2 Sur 6 Sur 0 -- -- 93
2019-04-05 21:00:00 3 5 Norte 9 Norte 0.4 -- -- 91
2019-04-05 20:00:00 3.1 5 Noroeste 11 Norte 2 -- -- 89
2019-04-05 19:00:00 4.3 5 Oeste 15 Este 1 -- -- 88
2019-04-05 18:00:00 5.7 10 Sudeste 20 Oeste 0.2 -- -- 76
2019-04-05 17:00:00 6.1 10 Sudoeste 21 Sudoeste 0 -- -- 81
2019-04-05 16:00:00 5.6 9 Sur 25 Sudeste 0.6 -- -- 83
2019-04-05 15:00:00 5.6 7 Sur 26 Sudeste 0.6 -- -- 80
2019-04-05 14:00:00 6.2 12 Sur 30 Sudeste 0 -- -- 75
2019-04-05 13:00:00 6.7 12 Sudeste 24 Sudeste 0 -- -- 73
2019-04-05 12:00:00 4.8 10 Sur 26 Oeste 0.2 -- -- 82
2019-04-05 11:00:00 3.8 13 Sudoeste 27 Sudoeste 0.2 -- -- 83
2019-04-05 10:00:00 3.4 14 Sudoeste 34 Sudoeste 0 -- -- 83
2019-04-05 09:00:00 2.7 19 Sudoeste 29 Sudoeste 0.2 -- -- 85
2019-04-05 08:00:00 3.1 15 Sur 30 Sudeste 0 -- -- 80
2019-04-05 07:00:00 5.7 13 Sur 37 Sur 0 -- -- 53
2019-04-05 06:00:00 6.8 12 Sur 31 Sudeste 0 -- -- 43
2019-04-05 05:00:00 6.6 13 Sudoeste 34 Sudoeste 0 -- -- 43
2019-04-05 04:00:00 7 15 Sudeste 36 Sudeste 0 -- -- 42
2019-04-05 03:00:00 5.9 10 Sudoeste 18 Sur 0 -- -- 46
2019-04-05 02:00:00 6.1 9 Sudoeste 19 Sudoeste 0 -- -- 47
2019-04-05 01:00:00 5.2 8 Sudoeste 16 Sudoeste 0 -- -- 54
2019-04-05 00:00:00 4.4 2 Sudoeste 8 Oeste 0 -- -- 66
2019-04-04 23:00:00 4.7 0 Calma 5 Oeste 0 -- -- 65
2019-04-04 22:00:00 5.3 3 Oeste 10 Noroeste 0 -- -- 58
2019-04-04 21:00:00 6.5 4 Oeste 12 Sudeste 0 -- -- 49
2019-04-04 20:00:00 7.4 6 Sur 13 Sudoeste 0 -- -- 45
2019-04-04 19:00:00 8 6 Sur 22 Sur 0 -- -- 42
2019-04-04 18:00:00 9 8 Sur 23 Sudoeste 0 -- -- 41
2019-04-04 17:00:00 8.1 7 Sudeste 19 Sudoeste 0 -- -- 42
2019-04-04 16:00:00 6.5 2 Este 13 Noroeste 0 -- -- 48
2019-04-04 15:00:00 6.3 11 Oeste 24 Oeste 0 -- -- 49
2019-04-04 14:00:00 6.7 13 Oeste 30 Oeste 0 -- -- 50
2019-04-04 13:00:00 5.8 15 Oeste 28 Noroeste 0 -- -- 55
2019-04-04 12:00:00 5.1 12 Oeste 23 Noroeste 0 -- -- 60
2019-04-04 11:00:00 3.5 10 Oeste 19 Oeste 0 -- -- 72
2019-04-04 10:00:00 0.9 10 Noroeste 17 Oeste 0 -- -- 80
2019-04-04 09:00:00 -0.4 4 Sur 10 Sur 0 -- -- 84
2019-04-04 08:00:00 -0.7 9 Oeste 27 Oeste 0 -- -- 83
2019-04-04 07:00:00 -0.6 13 Noroeste 24 Noroeste 0 -- -- 82
2019-04-04 06:00:00 -0.3 15 Oeste 24 Oeste 0 -- -- 81
2019-04-04 05:00:00 -0.5 7 Oeste 18 Oeste 0 -- -- 82
2019-04-04 04:00:00 -0.3 10 Oeste 21 Oeste 0 -- -- 84
2019-04-04 03:00:00 -0.3 7 Oeste 24 Oeste 0.2 -- -- 85
2019-04-04 02:00:00 0.2 15 Oeste 24 Oeste 0 -- -- 78
2019-04-04 01:00:00 0.7 11 Noroeste 26 Oeste 0 -- -- 74
2019-04-04 00:00:00 1.4 12 Oeste 30 Noroeste 0 -- -- 71
2019-04-03 23:00:00 2 7 Oeste 24 Noroeste 0 -- -- 70
2019-04-03 22:00:00 1.3 7 Noroeste 14 Noroeste 0 -- -- 68
2019-04-03 21:00:00 2.5 5 Oeste 17 Oeste 0 -- -- 71
2019-04-03 20:00:00 3 12 Oeste 28 Noroeste 0 -- -- 66
2019-04-03 19:00:00 3.7 17 Noroeste 32 Noroeste 0 -- -- 57
2019-04-03 18:00:00 3.6 6 Oeste 36 Oeste 0.6 -- -- 79
2019-04-03 17:00:00 7.2 13 Noroeste 29 Oeste 0 -- -- 56
2019-04-03 16:00:00 6.5 12 Norte 27 Noroeste 0.4 -- -- 62
2019-04-03 15:00:00 5.6 9 Oeste 20 Noroeste 0.2 -- -- 79
2019-04-03 14:00:00 5.9 5 Oeste 17 Oeste 0 -- -- 74
2019-04-03 13:00:00 5.4 9 Oeste 20 Noroeste 0.2 -- -- 77
2019-04-03 12:00:00 4.9 6 Oeste 17 Oeste 0 -- -- 86
2019-04-03 11:00:00 4.1 8 Oeste 17 Oeste 0.2 -- -- 86
2019-04-03 10:00:00 3.9 4 Oeste 10 Oeste 0.2 -- -- 89
2019-04-03 09:00:00 3.8 4 Oeste 10 Sur 0 -- -- 91
2019-04-03 08:00:00 3.8 3 Sudoeste 23 Noroeste 0.8 -- -- 91
2019-04-03 07:00:00 4.6 9 Oeste 17 Oeste 0 -- -- 90
2019-04-03 06:00:00 4.8 3 Sudoeste 13 Oeste 1 -- -- 90
2019-04-03 05:00:00 5.2 3 Sudoeste 12 Oeste 0.6 -- -- 90
2019-04-03 04:00:00 5.4 5 Noroeste 18 Oeste 1.2 -- -- 89
2019-04-03 03:00:00 5.9 4 Este 14 Oeste 0 -- -- 85
2019-04-03 02:00:00 6.4 6 Norte 25 Oeste 0.2 -- -- 81
2019-04-03 01:00:00 6.4 2 Noroeste 7 Nordeste 0 -- -- 76
2019-04-03 00:00:00 6.6 0 Calma 7 Oeste 0 -- -- 71
2019-04-02 23:00:00 6.7 3 Norte 14 Noroeste 0 -- -- 69
2019-04-02 22:00:00 7.3 5 Nordeste 19 Noroeste 0 -- -- 65
2019-04-02 21:00:00 8.6 2 Este 14 Noroeste 0 -- -- 59
2019-04-02 20:00:00 11.2 9 Noroeste 21 Oeste 0 -- -- 49
2019-04-02 19:00:00 13 11 Noroeste 26 Oeste 0 -- -- 40
2019-04-02 18:00:00 14.4 9 Noroeste 28 Oeste 0 -- -- 37
2019-04-02 17:00:00 15.1 12 Noroeste 30 Oeste 0 -- -- 36
2019-04-02 16:00:00 15.3 9 Norte 28 Noroeste 0 -- -- 37
2019-04-02 15:00:00 14.5 6 Nordeste 26 Oeste 0 -- -- 43
2019-04-02 14:00:00 13.7 8 Nordeste 20 Noroeste 0 -- -- 47
2019-04-02 13:00:00 12.4 3 Noroeste 23 Nordeste 0.2 -- -- 67
2019-04-02 12:00:00 12.1 11 Noroeste 22 Noroeste 0 -- -- 67
2019-04-02 11:00:00 11.2 5 Noroeste 12 Oeste 0 -- -- 76
2019-04-02 10:00:00 7.3 2 Este 6 Este 0 -- -- 97
2019-04-02 09:00:00 5.6 2 Sudoeste 6 Noroeste 0 -- -- 96
2019-04-02 08:00:00 5.8 0 Calma 5 Sudeste 0 -- -- 95
2019-04-02 07:00:00 6.1 2 Sudoeste 5 Sudoeste 0 -- -- 94
2019-04-02 06:00:00 6.7 2 Sudoeste 8 Norte 0 -- -- 93
2019-04-02 05:00:00 7.2 0 Calma 5 Norte 0 -- -- 91
2019-04-02 04:00:00 7.4 4 Norte 8 Norte 0 -- -- 90
2019-04-02 03:00:00 7.7 2 Norte 6 Nordeste 0 -- -- 91
2019-04-02 02:00:00 7.9 3 Norte 8 Norte 0 -- -- 91
2019-04-02 01:00:00 8.3 2 Oeste 8 Nordeste 0.6 -- -- 90
2019-04-02 00:00:00 8.5 0 Calma 4 Sudoeste 0 -- -- 91
2019-04-01 23:00:00 8.6 0 Calma 5 Nordeste 0 -- -- 90
2019-04-01 22:00:00 8.9 0 Calma 5 Sudeste 0 -- -- 87
2019-04-01 21:00:00 9.6 3 Sudeste 9 Norte 0 -- -- 84
2019-04-01 20:00:00 10.3 2 Este 6 Noroeste 0 -- -- 81
2019-04-01 19:00:00 10.6 4 Oeste 12 Oeste 0 -- -- 78
2019-04-01 18:00:00 10.5 6 Oeste 12 Sudoeste 0 -- -- 80
2019-04-01 17:00:00 11 8 Sudoeste 16 Sudoeste 0 -- -- 73
2019-04-01 16:00:00 11.2 9 Sudoeste 16 Sudoeste 0 -- -- 75
2019-04-01 15:00:00 11.1 9 Sudoeste 18 Sudoeste 0 -- -- 75
2019-04-01 14:00:00 10.8 6 Sur 15 Sur 0 -- -- 72
2019-04-01 13:00:00 9.9 5 Sudoeste 10 Sudoeste 0.2 -- -- 88
2019-04-01 12:00:00 8.3 0 Calma 5 Sudeste 0.2 -- -- 93
2019-04-01 11:00:00 7 0 Calma 4 Sudeste 0.2 -- -- 93
2019-04-01 10:00:00 6.2 0 Calma 4 Este 0.6 -- -- 93
2019-04-01 09:00:00 5.8 2 Sur 4 Sur 0.4 -- -- 92
2019-04-01 08:00:00 5.5 3 Nordeste 5 Nordeste 0.6 -- -- 92
2019-04-01 07:00:00 5.9 2 Sudeste 4 Sudoeste 0 -- -- 88
2019-04-01 06:00:00 6.1 5 Sudoeste 8 Sudoeste 0 -- -- 85
2019-04-01 05:00:00 6.2 2 Noroeste 4 Nordeste 0 -- -- 85
2019-04-01 04:00:00 6.5 2 Oeste 6 Sudoeste 0 -- -- 84
2019-04-01 03:00:00 7.1 0 Calma 5 Sudoeste 0 -- -- 82
2019-04-01 02:00:00 7.6 0 Calma 3 Oeste 0 -- -- 76
2019-04-01 01:00:00 8.1 0 Calma 3 Oeste 0 -- -- 71
2019-04-01 00:00:00 8.6 0 Calma 6 Sudoeste 0 -- -- 70
2019-03-31 23:00:00 9.3 3 Sudoeste 7 Sudoeste 0 -- -- 67
2019-03-31 22:00:00 9.6 4 Oeste 6 Oeste 0 -- -- 65
2019-03-31 21:00:00 10.6 4 Sudoeste 9 Sur 0 -- -- 63
2019-03-31 20:00:00 12.1 4 Sur 18 Sudoeste 0 -- -- 57
2019-03-31 19:00:00 13.8 8 Sur 19 Sur 0 -- -- 51
2019-03-31 18:00:00 15 8 Sudoeste 23 Sur 0 -- -- 43
2019-03-31 17:00:00 16.1 7 Sudoeste 22 Sur 0 -- -- 38
2019-03-31 16:00:00 15.6 9 Sudoeste 29 Sudoeste 0 -- -- 40
2019-03-31 15:00:00 15.3 11 Sudoeste 25 Sudoeste 0 -- -- 40
2019-03-31 14:00:00 15.6 9 Sudoeste 22 Sur 0 -- -- 39
2019-03-31 13:00:00 15 7 Sudoeste 17 Sur 0 -- -- 40
2019-03-31 12:00:00 13.3 5 Sur 14 Sudoeste 0 -- -- 46
2019-03-31 11:00:00 9 3 Sudeste 8 Nordeste 0 -- -- 63
2019-03-31 10:00:00 3.5 2 Este 5 Este 0 -- -- 82
2019-03-31 09:00:00 -0.1 0 Calma 4 Sudoeste 0 -- -- 91
2019-03-31 08:00:00 -0.9 2 Sudeste 5 Sudoeste 0 -- -- 88
2019-03-31 07:00:00 -0.6 0 Calma 5 Sudoeste 0 -- -- 86
2019-03-31 06:00:00 0 0 Calma 5 Noroeste 0 -- -- 86
2019-03-31 05:00:00 0.7 2 Oeste 5 Nordeste 0 -- -- 85
2019-03-31 03:00:00 1.9 0 Calma 6 Nordeste 0 -- -- 78
2019-03-31 01:00:00 2.5 0 Calma 7 Noroeste 0 -- -- 76
2019-03-31 00:00:00 3.7 3 Sudoeste 6 Sudoeste 0 -- -- 72
2019-03-30 23:00:00 4.7 0 Calma 8 Norte 0 -- -- 67
2019-03-30 22:00:00 6.3 0 Calma 5 Sudoeste 0 -- -- 62
2019-03-30 21:00:00 8.2 0 Calma 5 Este 0 -- -- 54
2019-03-30 20:00:00 10.7 4 Sudoeste 13 Sudoeste 0 -- -- 46
2019-03-30 19:00:00 13.3 8 Sudoeste 23 Sur 0 -- -- 40
2019-03-30 18:00:00 15.3 12 Sudoeste 21 Sudoeste 0 -- -- 34
2019-03-30 17:00:00 16.4 10 Sudoeste 22 Sur 0 -- -- 30
2019-03-30 16:00:00 16.7 10 Sur 29 Sudoeste 0 -- -- 31
2019-03-30 15:00:00 16.9 12 Sudoeste 24 Sudoeste 0 -- -- 31
2019-03-30 14:00:00 16.1 9 Sur 26 Sur 0 -- -- 34
2019-03-30 13:00:00 15.6 13 Sudoeste 29 Sudoeste 0 -- -- 34
2019-03-30 12:00:00 14.8 9 Sur 19 Sur 0 -- -- 35
2019-03-30 11:00:00 13.4 11 Sudoeste 19 Sur 0 -- -- 39
2019-03-30 10:00:00 9.4 3 Sudeste 8 Este 0 -- -- 58
2019-03-30 09:00:00 4.1 4 Nordeste 8 Nordeste 0 -- -- 78
2019-03-30 08:00:00 0 0 Calma 5 Sur 0 -- -- 87
2019-03-30 07:00:00 -0.6 0 Calma 4 Sudoeste 0 -- -- 88
2019-03-30 06:00:00 -0.1 2 Sur 4 Sudoeste 0 -- -- 86
2019-03-30 05:00:00 0.1 0 Calma 4 Oeste 0 -- -- 85
2019-03-30 04:00:00 0.8 0 Calma 6 Sudeste 0 -- -- 82
2019-03-30 03:00:00 1.3 0 Calma 5 Sur 0 -- -- 79
2019-03-30 02:00:00 2 3 Norte 7 Sur 0 -- -- 76
2019-03-30 01:00:00 2.8 0 Calma 5 Oeste 0 -- -- 75
2019-03-30 00:00:00 3.8 4 Sudoeste 6 Sudoeste 0 -- -- 70
2019-03-29 23:00:00 5 0 Calma 4 Norte 0 -- -- 65
2019-03-29 22:00:00 6.4 0 Calma 3 Este 0 -- -- 60
2019-03-29 21:00:00 8.2 0 Calma 5 Oeste 0 -- -- 52
2019-03-29 20:00:00 11.1 3 Sudoeste 19 Sudeste 0 -- -- 43
2019-03-29 19:00:00 13.1 9 Sur 26 Sur 0 -- -- 38
2019-03-29 18:00:00 14.2 12 Sudeste 30 Sur 0 -- -- 36
2019-03-29 17:00:00 16.2 13 Sudoeste 31 Sudoeste 0 -- -- 33
2019-03-29 16:00:00 16.3 14 Sudoeste 36 Sudoeste 0 -- -- 31
2019-03-29 15:00:00 16 17 Sur 34 Sur 0 -- -- 32
2019-03-29 14:00:00 15.5 18 Sur 38 Sudoeste 0 -- -- 32
2019-03-29 13:00:00 15.4 18 Sudoeste 37 Sudoeste 0 -- -- 33
2019-03-29 12:00:00 14.8 14 Sur 35 Sudoeste 0 -- -- 36
2019-03-29 11:00:00 13.2 14 Sur 33 Sur 0 -- -- 42
2019-03-29 10:00:00 10.4 8 Sudoeste 22 Sudoeste 0 -- -- 54
2019-03-29 09:00:00 4.5 2 Sudeste 6 Este 0 -- -- 81
2019-03-29 08:00:00 0.5 2 Sur 4 Nordeste 0 -- -- 89
2019-03-29 07:00:00 0 0 Calma 3 Oeste 0 -- -- 90
2019-03-29 06:00:00 0.3 0 Calma 5 Sudoeste 0 -- -- 88
2019-03-29 05:00:00 0.5 2 Sur 4 Sudoeste 0 -- -- 86
2019-03-29 04:00:00 0.9 3 Sudoeste 5 Sudoeste 0 -- -- 86
2019-03-29 03:00:00 1.8 0 Calma 4 Oeste 0 -- -- 84
2019-03-29 02:00:00 2.5 0 Calma 4 Sur 0 -- -- 80
2019-03-29 01:00:00 3.6 3 Sudoeste 5 Oeste 0 -- -- 78
2019-03-29 00:00:00 4.5 0 Calma 5 Sudoeste 0 -- -- 74
2019-03-28 23:00:00 6.5 0 Calma 12 Nordeste 0 -- -- 67
2019-03-28 22:00:00 9.5 6 Norte 20 Nordeste 0 -- -- 58
2019-03-28 21:00:00 10.4 9 Norte 27 Nordeste 0 -- -- 55
2019-03-28 20:00:00 11 11 Norte 30 Noroeste 0 -- -- 53
2019-03-28 19:00:00 12.1 13 Noroeste 31 Noroeste 0 -- -- 49
2019-03-28 18:00:00 13.6 13 Norte 34 Nordeste 0 -- -- 44
2019-03-28 17:00:00 15.2 16 Norte 36 Norte 0 -- -- 39
2019-03-28 16:00:00 16.3 19 Nordeste 33 Nordeste 0 -- -- 33
2019-03-28 15:00:00 17 14 Nordeste 29 Nordeste 0 -- -- 29
2019-03-28 14:00:00 17.2 12 Sur 26 Sudoeste 0 -- -- 31
2019-03-28 13:00:00 16.4 10 Sur 18 Sur 0 -- -- 30
2019-03-28 12:00:00 15.2 6 Sudeste 17 Sur 0 -- -- 31
2019-03-28 11:00:00 13.4 6 Sur 12 Sur 0 -- -- 32
2019-03-28 10:00:00 8.5 3 Sur 6 Nordeste 0 -- -- 42
2019-03-28 09:00:00 3 3 Este 6 Este 0 -- -- 66
2019-03-28 08:00:00 -1.3 0 Calma 5 Nordeste 0 -- -- 80
2019-03-28 07:00:00 -2.2 3 Nordeste 5 Nordeste 0 -- -- 77
2019-03-28 06:00:00 -1.6 2 Nordeste 5 Sudoeste 0 -- -- 76
2019-03-28 05:00:00 -0.7 3 Sudoeste 6 Nordeste 0 -- -- 73
2019-03-28 04:00:00 0.5 3 Noroeste 8 Nordeste 0 -- -- 67
2019-03-28 03:00:00 0.9 4 Sudoeste 9 Sudoeste 0 -- -- 66
2019-03-28 02:00:00 2.4 4 Sudoeste 10 Sudoeste 0 -- -- 61
2019-03-28 01:00:00 6.5 6 Nordeste 26 Nordeste 0 -- -- 47
2019-03-28 00:00:00 8.1 15 Nordeste 41 Norte 0 -- -- 43
2019-03-27 23:00:00 8.3 18 Norte 53 Nordeste 0 -- -- 44
2019-03-27 22:00:00 8.5 21 Norte 61 Nordeste 0 -- -- 44
2019-03-27 21:00:00 9 18 Norte 48 Nordeste 0 -- -- 42
2019-03-27 20:00:00 9.4 17 Norte 51 Nordeste 0 -- -- 41
2019-03-27 19:00:00 10.1 19 Norte 50 Nordeste 0 -- -- 39
2019-03-27 18:00:00 11.5 20 Norte 48 Nordeste 0 -- -- 35
2019-03-27 17:00:00 12.8 23 Norte 58 Nordeste 0 -- -- 30
2019-03-27 16:00:00 14 18 Norte 49 Nordeste 0 -- -- 28
2019-03-27 15:00:00 14 26 Nordeste 49 Nordeste 0 -- -- 26
2019-03-27 14:00:00 14.5 25 Nordeste 46 Nordeste 0 -- -- 24
2019-03-27 13:00:00 14.4 24 Nordeste 45 Nordeste 0 -- -- 21
2019-03-27 12:00:00 13.4 24 Nordeste 44 Nordeste 0 -- -- 21
2019-03-27 11:00:00 12.5 27 Nordeste 47 Norte 0 -- -- 19
2019-03-27 10:00:00 8.6 5 Sur 11 Sur 0 -- -- 37
2019-03-27 09:00:00 3.6 3 Sudeste 9 Este 0 -- -- 49
2019-03-27 08:00:00 -1.6 2 Norte 8 Oeste 0 -- -- 66
2019-03-27 07:00:00 -1.4 5 Sudoeste 10 Oeste 0 -- -- 60
2019-03-27 06:00:00 -0.7 3 Oeste 13 Oeste 0 -- -- 56
2019-03-27 05:00:00 0.3 9 Oeste 15 Sudoeste 0 -- -- 51
2019-03-27 04:00:00 1 6 Sudoeste 17 Sudoeste 0 -- -- 50
2019-03-27 03:00:00 3.8 6 Sudoeste 28 Nordeste 0 -- -- 40
2019-03-27 02:00:00 6.9 11 Nordeste 35 Nordeste 0 -- -- 32
2019-03-27 01:00:00 7.3 18 Norte 38 Norte 0 -- -- 33
2019-03-27 00:00:00 7.5 18 Norte 45 Norte 0 -- -- 33
2019-03-26 23:00:00 7.5 21 Norte 48 Norte 0 -- -- 36
2019-03-26 22:00:00 8.1 20 Norte 45 Nordeste 0 -- -- 35
2019-03-26 21:00:00 8.8 19 Norte 45 Nordeste 0 -- -- 31
2019-03-26 20:00:00 9.5 17 Norte 44 Nordeste 0 -- -- 30
2019-03-26 19:00:00 10.5 13 Norte 42 Norte 0 -- -- 29
2019-03-26 18:00:00 12 14 Norte 40 Nordeste 0 -- -- 26
2019-03-26 17:00:00 13.2 14 Norte 43 Norte 0 -- -- 24
2019-03-26 16:00:00 13.8 21 Nordeste 42 Nordeste 0 -- -- 22
2019-03-26 15:00:00 14.6 19 Norte 40 Nordeste 0 -- -- 19
2019-03-26 14:00:00 14.9 21 Nordeste 37 Nordeste 0 -- -- 16
2019-03-26 13:00:00 14.6 20 Nordeste 37 Nordeste 0 -- -- 16
2019-03-26 12:00:00 13.9 23 Nordeste 43 Nordeste 0 -- -- 13
2019-03-26 11:00:00 12.8 22 Nordeste 41 Nordeste 0 -- -- 13
2019-03-26 10:00:00 11.2 26 Nordeste 44 Norte 0 -- -- 16
2019-03-26 09:00:00 9.5 18 Norte 39 Nordeste 0 -- -- 18
2019-03-26 08:00:00 7.4 12 Norte 45 Norte 0 -- -- 25
2019-03-26 07:00:00 6.3 22 Norte 43 Nordeste 0 -- -- 34
2019-03-26 06:00:00 6.6 21 Norte 46 Nordeste 0 -- -- 36
2019-03-26 05:00:00 6.5 21 Norte 53 Norte 0 -- -- 40
2019-03-26 04:00:00 6.3 18 Norte 49 Norte 0 -- -- 45
2019-03-26 03:00:00 7.3 22 Norte 55 Noroeste 0 -- -- 41
2019-03-26 02:00:00 7.3 20 Norte 52 Nordeste 0 -- -- 47
2019-03-26 01:00:00 7 23 Norte 49 Nordeste 0 -- -- 54
2019-03-26 00:00:00 7.1 21 Norte 60 Nordeste 0 -- -- 57
2019-03-25 23:00:00 7.4 22 Norte 55 Noroeste 0 -- -- 55
2019-03-25 22:00:00 7.6 23 Norte 64 Noroeste 0 -- -- 54
2019-03-25 21:00:00 7.8 24 Norte 68 Nordeste 0 -- -- 52
2019-03-25 20:00:00 7.9 31 Norte 75 Nordeste 0 -- -- 51
2019-03-25 19:00:00 8.7 26 Norte 62 Nordeste 0 -- -- 49
2019-03-25 18:00:00 9.8 23 Norte 63 Nordeste 0 -- -- 47
2019-03-25 17:00:00 10.8 29 Norte 59 Norte 0 -- -- 44
2019-03-25 16:00:00 12.2 27 Nordeste 58 Nordeste 0 -- -- 38
2019-03-25 15:00:00 12.9 28 Nordeste 51 Norte 0 -- -- 33
2019-03-25 14:00:00 12.9 28 Nordeste 61 Nordeste 0 -- -- 33
2019-03-25 13:00:00 12.6 21 Norte 53 Nordeste 0 -- -- 35
2019-03-25 12:00:00 12.7 19 Noroeste 45 Nordeste 0 -- -- 37
2019-03-25 11:00:00 11.5 22 Noroeste 51 Noroeste 0 -- -- 42
2019-03-25 10:00:00 10.6 18 Norte 41 Norte 0 -- -- 48
2019-03-25 09:00:00 9.6 14 Nordeste 38 Norte 0 -- -- 55
2019-03-25 08:00:00 5.9 7 Este 32 Nordeste 0 -- -- 65
2019-03-25 07:00:00 5.6 9 Nordeste 33 Norte 0 -- -- 65
2019-03-25 06:00:00 9.2 16 Norte 40 Nordeste 0 -- -- 55
2019-03-25 05:00:00 5.8 9 Nordeste 36 Norte 0 -- -- 67
2019-03-25 04:00:00 4 7 Sudoeste 14 Sudoeste 0 -- -- 73
2019-03-25 03:00:00 5.8 6 Sudoeste 27 Norte 0 -- -- 65
2019-03-25 02:00:00 9.5 7 Nordeste 33 Nordeste 0 -- -- 52
2019-03-25 01:00:00 11.1 12 Norte 35 Norte 0 -- -- 50
2019-03-25 00:00:00 11.3 17 Noroeste 39 Nordeste 0 -- -- 51
2019-03-24 23:00:00 11.7 16 Norte 47 Nordeste 0 -- -- 48
2019-03-24 22:00:00 12.1 18 Norte 49 Nordeste 0 -- -- 45
2019-03-24 21:00:00 12.7 23 Norte 51 Nordeste 0 -- -- 42
2019-03-24 20:00:00 13.3 23 Norte 51 Norte 0 -- -- 41
2019-03-24 19:00:00 14.1 18 Norte 45 Nordeste 0 -- -- 42
2019-03-24 18:00:00 15.4 16 Norte 43 Nordeste 0 -- -- 40
2019-03-24 17:00:00 16.6 17 Norte 44 Norte 0 -- -- 38
2019-03-24 16:00:00 17.5 18 Nordeste 38 Nordeste 0 -- -- 36
2019-03-24 15:00:00 18 18 Nordeste 37 Norte 0 -- -- 33
2019-03-24 14:00:00 18.1 18 Nordeste 38 Nordeste 0 -- -- 31
2019-03-24 13:00:00 17.9 21 Nordeste 37 Nordeste 0 -- -- 28
2019-03-24 12:00:00 17.6 18 Nordeste 32 Norte 0 -- -- 27
2019-03-24 11:00:00 16.6 17 Nordeste 29 Nordeste 0 -- -- 29
2019-03-24 10:00:00 10.7 3 Sudeste 6 Este 0 -- -- 55
2019-03-24 09:00:00 5.2 2 Nordeste 5 Este 0 -- -- 77
2019-03-24 08:00:00 1.2 0 Calma 4 Nordeste 0 -- -- 87
2019-03-24 07:00:00 1 0 Calma 3 Sudoeste 0 -- -- 86
2019-03-24 06:00:00 1.4 0 Calma 3 Sudoeste 0 -- -- 84
2019-03-24 05:00:00 2.1 0 Calma 3 Sudoeste 0 -- -- 82
2019-03-24 04:00:00 2.4 0 Calma 3 Nordeste 0 -- -- 82
2019-03-24 03:00:00 3 0 Calma 5 Oeste 0 -- -- 78
2019-03-24 02:00:00 3.9 0 Calma 4 Nordeste 0 -- -- 76
2019-03-24 01:00:00 4.7 0 Calma 4 Sur 0 -- -- 72
2019-03-24 00:00:00 5.9 0 Calma 4 Sur 0 -- -- 68
2019-03-23 23:00:00 7.5 0 Calma 4 Sudoeste 0 -- -- 62
2019-03-23 22:00:00 9.2 0 Calma 7 Norte 0 -- -- 56
2019-03-23 21:00:00 12.2 0 Calma 22 Norte 0 -- -- 46
2019-03-23 20:00:00 14.6 9 Norte 26 Norte 0 -- -- 39
2019-03-23 19:00:00 15.8 10 Noroeste 22 Norte 0 -- -- 37
2019-03-23 18:00:00 17 9 Noroeste 18 Nordeste 0 -- -- 33
2019-03-23 17:00:00 17.6 4 Norte 21 Norte 0 -- -- 32
2019-03-23 16:00:00 18.6 14 Nordeste 26 Nordeste 0 -- -- 30
2019-03-23 15:00:00 20.7 7 Sudoeste 21 Sudoeste 0 -- -- 27
2019-03-23 14:00:00 19.8 6 Sur 22 Sudoeste 0 -- -- 29
2019-03-23 13:00:00 19 5 Sudoeste 19 Sur 0 -- -- 31
2019-03-23 12:00:00 18.2 6 Sur 16 Sudoeste 0 -- -- 32
2019-03-23 11:00:00 14.9 4 Sur 8 Sur 0 -- -- 45
2019-03-23 10:00:00 9.7 3 Este 6 Nordeste 0 -- -- 60
2019-03-23 09:00:00 4.6 2 Nordeste 4 Nordeste 0 -- -- 78
2019-03-23 08:00:00 0.3 0 Calma 4 Noroeste 0 -- -- 89
2019-03-23 07:00:00 -0.2 2 Sudoeste 5 Sudoeste 0 -- -- 87
2019-03-23 06:00:00 0.1 0 Calma 5 Oeste 0 -- -- 87
2019-03-23 05:00:00 0.6 0 Calma 5 Sudoeste 0 -- -- 85
2019-03-23 04:00:00 0.8 0 Calma 5 Sudoeste 0 -- -- 86
2019-03-23 03:00:00 1.3 0 Calma 4 Sudoeste 0 -- -- 82
2019-03-23 02:00:00 1.9 0 Calma 4 Oeste 0 -- -- 79
2019-03-23 01:00:00 2.5 0 Calma 5 Oeste 0 -- -- 77
2019-03-23 00:00:00 3.5 0 Calma 4 Sudoeste 0 -- -- 75
2019-03-22 23:00:00 4.5 0 Calma 4 Sudoeste 0 -- -- 70
2019-03-22 22:00:00 6.1 0 Calma 4 Norte 0 -- -- 65
2019-03-22 21:00:00 7.7 0 Calma 4 Nordeste 0 -- -- 58
2019-03-22 20:00:00 10.4 0 Calma 5 Este 0 -- -- 50
2019-03-22 19:00:00 13.9 2 Sudoeste 15 Sudoeste 0 -- -- 38
2019-03-22 18:00:00 16.1 8 Sudoeste 24 Sudoeste 0 -- -- 34
2019-03-22 17:00:00 17.6 7 Sudoeste 26 Sudoeste 0 -- -- 30
2019-03-22 16:00:00 17.6 10 Sudoeste 23 Sur 0 -- -- 31
2019-03-22 15:00:00 17.5 8 Sudoeste 24 Sur 0 -- -- 30
2019-03-22 14:00:00 16.8 8 Sur 22 Sur 0 -- -- 32
2019-03-22 13:00:00 16.1 9 Sudoeste 21 Sudoeste 0 -- -- 34
2019-03-22 12:00:00 15.1 9 Sudoeste 20 Sur 0 -- -- 34
2019-03-22 11:00:00 13 8 Sudoeste 15 Sudoeste 0 -- -- 38
2019-03-22 10:00:00 7 4 Este 8 Este 0 -- -- 60
2019-03-22 09:00:00 1.8 2 Este 4 Nordeste 0 -- -- 81
2019-03-22 08:00:00 -2.3 0 Calma 3 Sudoeste 0 -- -- 90
2019-03-22 07:00:00 -2.4 0 Calma 4 Sudoeste 0 -- -- 88
2019-03-22 06:00:00 -2.2 0 Calma 3 Sudoeste 0 -- -- 88
2019-03-22 05:00:00 -2.1 0 Calma 4 Sur 0 -- -- 87
2019-03-22 04:00:00 -1.6 0 Calma 4 Sur 0 -- -- 86
2019-03-22 03:00:00 -0.9 0 Calma 4 Sudoeste 0 -- -- 85
2019-03-22 02:00:00 -0.4 3 Sudoeste 4 Sudoeste 0 -- -- 83
2019-03-22 01:00:00 0.4 2 Oeste 4 Sudoeste 0 -- -- 82
2019-03-22 00:00:00 1.2 0 Calma 4 Oeste 0 -- -- 78
2019-03-21 23:00:00 2.4 2 Oeste 3 Noroeste 0 -- -- 74
2019-03-21 22:00:00 4 0 Calma 4 Sur 0 -- -- 68
2019-03-21 21:00:00 5.9 0 Calma 9 Norte 0 -- -- 61
2019-03-21 20:00:00 8.4 6 Norte 10 Nordeste 0 -- -- 51
2019-03-21 19:00:00 11 7 Oeste 16 Oeste 0 -- -- 41
2019-03-21 18:00:00 13.2 5 Oeste 15 Sudoeste 0 -- -- 34
2019-03-21 17:00:00 14.1 8 Oeste 19 Sudoeste 0 -- -- 32
2019-03-21 16:00:00 14.3 10 Sur 26 Sudoeste 0 -- -- 30
2019-03-21 15:00:00 14.2 10 Sur 21 Sudoeste 0 -- -- 30
2019-03-21 14:00:00 13.6 10 Sur 27 Sudoeste 0 -- -- 31
2019-03-21 13:00:00 13.3 9 Sur 22 Sudoeste 0 -- -- 32
2019-03-21 12:00:00 11.6 9 Sudoeste 18 Sudoeste 0 -- -- 34
2019-03-21 11:00:00 10.3 4 Sur 8 Sur 0 -- -- 37
2019-03-21 10:00:00 5.4 4 Este 6 Este 0 -- -- 46
2019-03-21 09:00:00 0.4 4 Este 6 Nordeste 0 -- -- 68
2019-03-21 08:00:00 -3.7 0 Calma 3 Sudoeste 0 -- -- 77
2019-03-21 07:00:00 -3.6 0 Calma 5 Sudoeste 0 -- -- 74
2019-03-21 06:00:00 -3.1 4 Sudoeste 5 Sudoeste 0 -- -- 74
2019-03-21 05:00:00 -2.8 0 Calma 4 Este 0 -- -- 71
2019-03-21 04:00:00 -1.9 3 Norte 6 Noroeste 0 -- -- 68
2019-03-21 03:00:00 -0.9 4 Sudoeste 12 Nordeste 0 -- -- 63
2019-03-21 02:00:00 0.3 6 Sudoeste 15 Norte 0 -- -- 61
2019-03-21 01:00:00 3.2 2 Este 31 Nordeste 0 -- -- 49
2019-03-21 00:00:00 5.4 14 Norte 43 Norte 0 -- -- 39
2019-03-20 23:00:00 5.6 17 Norte 42 Nordeste 0 -- -- 40
2019-03-20 22:00:00 5.8 17 Norte 47 Norte 0 -- -- 44
2019-03-20 21:00:00 5.9 19 Norte 57 Nordeste 0 -- -- 47
2019-03-20 20:00:00 6.1 20 Norte 54 Nordeste 0 -- -- 47
2019-03-20 19:00:00 6.7 23 Norte 49 Norte 0 -- -- 46
2019-03-20 18:00:00 7.6 18 Norte 45 Nordeste 0 -- -- 45
2019-03-20 17:00:00 8.9 20 Norte 44 Nordeste 0 -- -- 45
2019-03-20 16:00:00 9.9 18 Norte 49 Nordeste 0 -- -- 41
2019-03-20 15:00:00 10 27 Nordeste 50 Nordeste 0 -- -- 38
2019-03-20 14:00:00 9.9 26 Nordeste 53 Nordeste 0 -- -- 35
2019-03-20 13:00:00 8.9 21 Norte 49 Nordeste 0 -- -- 40
2019-03-20 12:00:00 8.1 23 Nordeste 55 Norte 0 -- -- 41
2019-03-20 11:00:00 7.6 28 Nordeste 50 Nordeste 0 -- -- 38
2019-03-20 10:00:00 6.9 28 Nordeste 49 Nordeste 0 -- -- 40
2019-03-20 09:00:00 5.5 27 Nordeste 51 Norte 0 -- -- 45
2019-03-20 08:00:00 3.8 17 Norte 43 Norte 0 -- -- 50
2019-03-20 07:00:00 3.7 19 Norte 40 Norte 0 -- -- 52
2019-03-20 06:00:00 3.8 14 Norte 36 Norte 0 -- -- 52
2019-03-20 05:00:00 3.7 17 Norte 37 Norte 0 -- -- 55
2019-03-20 04:00:00 4 12 Norte 35 Nordeste 0 -- -- 53
2019-03-20 03:00:00 4 11 Norte 36 Norte 0 -- -- 53
2019-03-20 02:00:00 4.2 15 Norte 33 Nordeste 0 -- -- 56
2019-03-20 01:00:00 4.3 14 Noroeste 33 Noroeste 0 -- -- 55
2019-03-20 00:00:00 4.3 14 Noroeste 34 Norte 0 -- -- 55
2019-03-19 23:00:00 4.3 13 Norte 33 Norte 0 -- -- 56
2019-03-19 22:00:00 4.5 14 Norte 36 Noroeste 0 -- -- 53
2019-03-19 21:00:00 4.5 14 Norte 33 Norte 0 -- -- 52
2019-03-19 20:00:00 4.6 14 Norte 49 Norte 0 -- -- 51
2019-03-19 19:00:00 4.8 20 Norte 51 Norte 0 -- -- 53
2019-03-19 18:00:00 5.3 17 Norte 46 Norte 0 -- -- 56
2019-03-19 17:00:00 5.7 18 Norte 57 Nordeste 0 -- -- 57
2019-03-19 16:00:00 7.1 23 Nordeste 42 Norte 0 -- -- 52
2019-03-19 15:00:00 7.5 26 Nordeste 50 Nordeste 0 -- -- 51
2019-03-19 14:00:00 7.7 25 Nordeste 48 Nordeste 0 -- -- 49
2019-03-19 13:00:00 7.4 28 Nordeste 55 Nordeste 0 -- -- 51
2019-03-19 12:00:00 6.9 28 Nordeste 52 Norte 0 -- -- 52
2019-03-19 11:00:00 5.9 33 Nordeste 60 Nordeste 0 -- -- 57
2019-03-19 10:00:00 5.6 32 Nordeste 53 Nordeste 0 -- -- 59
2019-03-19 09:00:00 4.8 14 Norte 37 Noroeste 0 -- -- 66
2019-03-19 08:00:00 3.6 13 Noroeste 27 Noroeste 0 -- -- 75
2019-03-19 07:00:00 2.9 15 Noroeste 29 Noroeste 0 -- -- 76
2019-03-19 06:00:00 2.7 10 Noroeste 27 Oeste 0 -- -- 76
2019-03-19 05:00:00 2.6 16 Noroeste 28 Oeste 0 -- -- 78
2019-03-19 04:00:00 3 16 Noroeste 27 Oeste 0 -- -- 76
2019-03-19 03:00:00 3.6 9 Noroeste 28 Nordeste 0 -- -- 72
2019-03-19 02:00:00 4 9 Noroeste 23 Noroeste 0 -- -- 66
2019-03-19 01:00:00 4.1 7 Norte 25 Nordeste 0 -- -- 58
2019-03-19 00:00:00 4.4 12 Norte 34 Nordeste 0 -- -- 54